createdAt,value
2022-09-11T00:00:53.019Z,80.90
2022-09-11T00:03:22.258Z,81.01
2022-09-11T00:05:49.995Z,81.80
2022-09-11T00:08:19.724Z,81.86
2022-09-11T00:10:49.292Z,82.26
2022-09-11T00:13:21.316Z,82.40
2022-09-11T00:15:51.274Z,82.55
2022-09-11T00:18:22.354Z,82.29
2022-09-11T00:20:51.507Z,81.79
2022-09-11T00:23:19.571Z,81.50
2022-09-11T00:25:49.552Z,81.66
2022-09-11T00:28:20.205Z,81.02
2022-09-11T00:30:48.676Z,80.89
2022-09-11T00:33:16.928Z,80.41
2022-09-11T00:35:54.519Z,79.70
2022-09-11T00:38:22.115Z,79.96
2022-09-11T00:40:51.805Z,79.46
2022-09-11T00:43:19.873Z,79.00
2022-09-11T00:45:54.472Z,78.89
2022-09-11T00:48:26.334Z,78.53
2022-09-11T00:50:55.721Z,78.17
2022-09-11T00:53:26.286Z,78.37
2022-09-11T00:55:59.383Z,78.70
2022-09-11T00:58:31.262Z,78.83
2022-09-11T01:00:59.256Z,78.32
2022-09-11T01:03:27.967Z,78.52
2022-09-11T01:05:56.069Z,78.28
2022-09-11T01:08:23.733Z,78.40
2022-09-11T01:11:03.308Z,78.26
2022-09-11T01:13:37.611Z,78.05
2022-09-11T01:16:14.022Z,78.57
2022-09-11T01:18:50.684Z,78.46
2022-09-11T01:21:52.538Z,77.95
2022-09-11T01:24:52.414Z,77.87
2022-09-11T01:27:39.789Z,77.97
2022-09-11T01:30:11.966Z,77.90
2022-09-11T01:32:50.818Z,77.56
2022-09-11T01:35:27.219Z,77.82
2022-09-11T01:37:58.217Z,77.82
2022-09-11T01:40:29.543Z,77.55
2022-09-11T01:43:07.055Z,77.43
2022-09-11T01:45:37.197Z,77.50
2022-09-11T01:48:08.939Z,77.30
2022-09-11T01:50:40.937Z,77.08
2022-09-11T01:53:12.837Z,76.98
2022-09-11T01:55:44.147Z,76.97
2022-09-11T01:58:17.446Z,77.37
2022-09-11T02:00:49.784Z,77.07
2022-09-11T02:03:22.537Z,77.33
2022-09-11T02:05:56.302Z,77.92
2022-09-11T02:08:28.821Z,77.50
2022-09-11T02:11:03.499Z,77.42
2022-09-11T02:13:38.306Z,77.42
2022-09-11T02:16:10.167Z,77.00
2022-09-11T02:18:45.991Z,77.06
2022-09-11T02:21:13.790Z,77.86
2022-09-11T02:23:42.351Z,77.31
2022-09-11T02:26:12.038Z,77.62
2022-09-11T02:28:41.333Z,77.16
2022-09-11T02:31:09.024Z,77.43
2022-09-11T02:33:38.572Z,76.74
2022-09-11T02:36:32.798Z,76.52
2022-09-11T02:39:15.394Z,76.56
2022-09-11T02:41:52.829Z,76.88
2022-09-11T02:44:34.958Z,76.57
2022-09-11T02:47:12.194Z,76.41
2022-09-11T02:49:51.505Z,76.29
2022-09-11T02:52:30.698Z,76.52
2022-09-11T02:55:08.015Z,76.88
2022-09-11T02:57:42.511Z,77.83
2022-09-11T03:00:13.413Z,78.02
2022-09-11T03:02:44.147Z,77.59
2022-09-11T03:05:13.445Z,77.39
2022-09-11T03:07:41.009Z,76.99
2022-09-11T03:10:11.509Z,77.08
2022-09-11T03:12:39.777Z,77.69
2022-09-11T03:15:09.557Z,78.04
2022-09-11T03:17:38.618Z,77.93
2022-09-11T03:20:07.272Z,77.86
2022-09-11T03:22:34.871Z,78.03
2022-09-11T03:25:02.885Z,78.04
2022-09-11T03:27:30.458Z,78.22
2022-09-11T03:29:58.595Z,78.67
2022-09-11T03:32:26.202Z,78.02
2022-09-11T03:34:55.145Z,77.75
2022-09-11T03:37:22.732Z,78.40
2022-09-11T03:39:50.355Z,78.13
2022-09-11T03:42:17.959Z,78.27
2022-09-11T03:44:45.641Z,78.59
2022-09-11T03:47:13.904Z,78.40
2022-09-11T03:49:41.512Z,77.67
2022-09-11T03:52:10.437Z,77.52
2022-09-11T03:54:39.324Z,77.78
2022-09-11T03:57:06.981Z,77.81
2022-09-11T03:59:34.608Z,77.87
2022-09-11T04:02:02.249Z,76.92
2022-09-11T04:04:29.868Z,76.92
2022-09-11T04:06:57.455Z,76.51
2022-09-11T04:09:26.778Z,77.06
2022-09-11T04:11:54.425Z,76.95
2022-09-11T04:14:22.772Z,76.95
2022-09-11T04:16:50.497Z,77.07
2022-09-11T04:19:18.765Z,76.86
2022-09-11T04:21:46.398Z,76.93
2022-09-11T04:24:15.297Z,77.29
2022-09-11T04:26:44.194Z,76.88
2022-09-11T04:29:11.793Z,77.03
2022-09-11T04:31:41.165Z,77.06
2022-09-11T04:34:09.521Z,77.33
2022-09-11T04:36:37.198Z,76.97
2022-09-11T04:39:05.115Z,78.53
2022-09-11T04:41:32.695Z,78.41
2022-09-11T04:44:05.172Z,78.51
2022-09-11T04:46:34.386Z,78.35
2022-09-11T04:49:02.168Z,78.82
2022-09-11T04:51:32.160Z,79.19
2022-09-11T04:54:00.801Z,79.55
2022-09-11T04:56:30.072Z,79.25
2022-09-11T04:59:02.318Z,79.53
2022-09-11T05:01:32.109Z,79.76
2022-09-11T05:04:01.739Z,79.03
2022-09-11T05:06:30.350Z,78.74
2022-09-11T05:09:02.408Z,78.34
2022-09-11T05:11:30.478Z,77.90
2022-09-11T05:13:59.852Z,77.59
2022-09-11T05:16:30.397Z,77.19
2022-09-11T05:18:59.058Z,77.01
2022-09-11T05:21:28.282Z,77.53
2022-09-11T05:23:58.597Z,77.39
2022-09-11T05:26:27.961Z,77.52
2022-09-11T05:28:56.355Z,77.80
2022-09-11T05:31:26.351Z,78.99
2022-09-11T05:33:57.008Z,79.24
2022-09-11T05:36:25.117Z,79.72
2022-09-11T05:38:53.720Z,80.53
2022-09-11T05:41:21.730Z,80.90
2022-09-11T05:43:49.691Z,81.36
2022-09-11T05:46:19.005Z,81.66
2022-09-11T05:48:46.998Z,81.26
2022-09-11T05:51:18.475Z,81.64
2022-09-11T05:53:47.054Z,82.13
2022-09-11T05:56:16.798Z,80.90
2022-09-11T05:58:46.125Z,80.64
2022-09-11T06:01:15.156Z,80.39
2022-09-11T06:03:43.559Z,79.92
2022-09-11T06:06:13.719Z,79.65
2022-09-11T06:08:44.068Z,79.31
2022-09-11T06:11:13.767Z,78.43
2022-09-11T06:13:43.121Z,78.15
2022-09-11T06:16:15.963Z,77.32
2022-09-11T06:18:48.979Z,77.39
2022-09-11T06:21:20.045Z,77.07
2022-09-11T06:23:50.130Z,77.60
2022-09-11T06:26:21.266Z,77.90
2022-09-11T06:28:50.746Z,77.29
2022-09-11T06:31:20.146Z,77.70
2022-09-11T06:33:48.353Z,77.62
2022-09-11T06:36:18.336Z,77.67
2022-09-11T06:38:46.556Z,77.24
2022-09-11T06:41:17.113Z,76.94
2022-09-11T06:43:45.286Z,76.80
2022-09-11T06:46:14.877Z,76.34
2022-09-11T06:48:43.403Z,75.95
2022-09-11T06:51:12.888Z,76.68
2022-09-11T06:53:41.452Z,77.09
2022-09-11T06:56:12.289Z,76.66
2022-09-11T06:58:41.687Z,76.17
2022-09-11T07:01:12.214Z,75.61
2022-09-11T07:03:45.348Z,75.26
2022-09-11T07:06:14.268Z,74.94
2022-09-11T07:08:42.083Z,74.16
2022-09-11T07:11:11.529Z,73.73
2022-09-11T07:13:39.663Z,73.61
2022-09-11T07:16:12.663Z,73.22
2022-09-11T07:18:42.119Z,73.01
2022-09-11T07:21:12.216Z,73.04
2022-09-11T07:23:40.968Z,72.52
2022-09-11T07:26:11.579Z,72.64
2022-09-11T07:28:39.807Z,73.04
2022-09-11T07:31:11.727Z,72.48
2022-09-11T07:33:42.696Z,71.41
2022-09-11T07:36:11.813Z,71.74
2022-09-11T07:38:40.991Z,71.76
2022-09-11T07:41:09.775Z,71.73
2022-09-11T07:43:37.824Z,70.90
2022-09-11T07:46:07.182Z,71.36
2022-09-11T07:48:37.099Z,71.27
2022-09-11T07:51:07.217Z,71.44
2022-09-11T07:53:35.784Z,70.04
2022-09-11T07:56:04.759Z,70.63
2022-09-11T07:58:36.413Z,70.67
2022-09-11T08:01:05.298Z,70.64
2022-09-11T08:03:34.314Z,71.56
2022-09-11T08:06:05.505Z,71.35
2022-09-11T08:08:33.240Z,71.00
2022-09-11T08:11:05.130Z,70.25
2022-09-11T08:13:33.303Z,70.24
2022-09-11T08:16:01.332Z,70.90
2022-09-11T08:18:29.251Z,70.74
2022-09-11T08:21:04.428Z,70.37
2022-09-11T08:23:33.256Z,69.53
2022-09-11T08:26:06.407Z,68.82
2022-09-11T08:28:35.253Z,68.96
2022-09-11T08:31:02.964Z,67.70
2022-09-11T08:33:31.032Z,67.47
2022-09-11T08:35:59.536Z,68.04
2022-09-11T08:38:29.300Z,68.33
2022-09-11T08:40:59.942Z,68.68
2022-09-11T08:43:32.577Z,68.85
2022-09-11T08:46:04.971Z,69.29
2022-09-11T08:48:41.235Z,69.12
2022-09-11T08:51:10.937Z,68.21
2022-09-11T08:53:40.044Z,68.17
2022-09-11T08:56:12.798Z,67.72
2022-09-11T08:58:49.466Z,66.22
2022-09-11T09:01:25.703Z,65.59
2022-09-11T09:04:11.085Z,64.97
2022-09-11T09:06:55.209Z,65.50
2022-09-11T09:09:35.257Z,66.18
2022-09-11T09:12:09.629Z,56.31
2022-09-11T09:15:13.738Z,46.56
2022-09-11T09:17:45.562Z,42.03
2022-09-11T09:20:21.255Z,42.73
2022-09-11T09:22:52.296Z,43.86
2022-09-11T09:25:23.534Z,43.73
2022-09-11T09:27:55.989Z,44.81
2022-09-11T09:30:27.338Z,46.97
2022-09-11T09:33:01.354Z,46.79
2022-09-11T09:35:39.518Z,43.11
2022-09-11T09:38:12.866Z,40.66
2022-09-11T09:40:50.091Z,41.80
2022-09-11T09:43:30.308Z,44.28
2022-09-11T09:46:11.379Z,47.75
2022-09-11T09:48:40.888Z,51.39
2022-09-11T09:51:13.306Z,52.79
2022-09-11T09:53:44.406Z,54.39
2022-09-11T09:56:17.289Z,55.82
2022-09-11T09:58:55.568Z,57.18
2022-09-11T10:01:46.820Z,58.28
2022-09-11T10:04:17.908Z,59.72
2022-09-11T10:06:47.388Z,60.56
2022-09-11T10:09:26.844Z,59.88
2022-09-11T10:12:02.932Z,59.75
2022-09-11T10:17:23.489Z,57.06
2022-09-11T10:19:54.744Z,57.63
2022-09-11T10:22:25.542Z,58.73
2022-09-11T10:25:00.497Z,59.19
2022-09-11T10:27:31.475Z,60.22
2022-09-11T10:30:00.526Z,60.31
2022-09-11T10:32:29.151Z,60.51
2022-09-11T10:34:57.717Z,61.40
2022-09-11T10:37:27.543Z,61.91
2022-09-11T10:40:08.986Z,61.23
2022-09-11T10:42:38.620Z,61.16
2022-09-11T10:45:13.814Z,60.92
2022-09-11T10:47:41.982Z,60.88
2022-09-11T10:50:22.412Z,59.05
2022-09-11T10:52:59.911Z,59.49
2022-09-11T10:55:31.744Z,58.74
2022-09-11T10:58:06.992Z,57.27
2022-09-11T11:00:35.814Z,55.78
2022-09-11T11:03:06.804Z,55.15
2022-09-11T11:05:46.236Z,54.25
2022-09-11T11:08:34.704Z,54.90
2022-09-11T11:11:17.996Z,54.09
2022-09-11T11:14:13.242Z,54.20
2022-09-11T11:16:52.434Z,54.95
2022-09-11T11:19:38.783Z,55.02
2022-09-11T11:22:14.816Z,54.79
2022-09-11T11:24:58.094Z,53.99
2022-09-11T11:27:40.598Z,52.41
2022-09-11T11:30:17.737Z,51.89
2022-09-11T11:33:03.954Z,52.59
2022-09-11T11:35:37.228Z,53.49
2022-09-11T11:38:12.041Z,53.87
2022-09-11T11:40:48.125Z,54.01
2022-09-11T11:43:18.418Z,55.18
2022-09-11T11:45:52.110Z,52.80
2022-09-11T11:48:25.296Z,47.99
2022-09-11T11:50:55.432Z,43.68
2022-09-11T11:53:26.681Z,40.46
2022-09-11T11:56:03.852Z,38.22
2022-09-11T11:58:42.938Z,37.93
2022-09-11T12:01:20.126Z,39.24
2022-09-11T12:03:56.504Z,40.28
2022-09-11T12:06:24.300Z,40.46
2022-09-11T12:08:51.927Z,41.49
2022-09-11T12:11:29.750Z,40.57
2022-09-11T12:13:58.880Z,41.10
2022-09-11T12:16:31.745Z,40.90
2022-09-11T12:19:08.486Z,40.71
2022-09-11T12:21:41.397Z,41.10
2022-09-11T12:24:21.131Z,41.57
2022-09-11T12:27:11.756Z,42.68
2022-09-11T12:29:54.206Z,44.85
2022-09-11T12:32:42.898Z,47.25
2022-09-11T12:35:20.386Z,48.44
2022-09-11T12:37:55.734Z,49.54
2022-09-11T12:40:34.113Z,50.46
2022-09-11T12:43:27.384Z,50.66
2022-09-11T12:45:56.822Z,51.05
2022-09-11T12:48:38.894Z,51.89
2022-09-11T12:51:08.354Z,52.63
2022-09-11T12:53:38.704Z,53.05
2022-09-11T12:56:08.423Z,52.75
2022-09-11T12:58:40.612Z,53.09
2022-09-11T13:01:23.732Z,53.06
2022-09-11T13:04:00.919Z,54.56
2022-09-11T13:06:41.841Z,54.69
2022-09-11T13:09:20.179Z,54.91
2022-09-11T13:11:50.139Z,55.17
2022-09-11T13:14:47.885Z,54.76
2022-09-11T13:17:25.679Z,54.65
2022-09-11T13:20:10.505Z,54.44
2022-09-11T13:22:39.318Z,55.18
2022-09-11T13:25:12.357Z,54.47
2022-09-11T13:27:42.551Z,54.36
2022-09-11T13:30:14.493Z,54.42
2022-09-11T13:32:42.991Z,54.41
2022-09-11T13:35:16.947Z,54.75
2022-09-11T13:37:47.194Z,54.86
2022-09-11T13:40:20.761Z,54.41
2022-09-11T13:42:49.829Z,55.41
2022-09-11T13:45:20.160Z,55.46
2022-09-11T13:47:47.864Z,55.26
2022-09-11T13:50:20.806Z,55.33
2022-09-11T13:52:50.255Z,54.93
2022-09-11T13:55:20.240Z,54.79
2022-09-11T13:57:57.434Z,54.54
2022-09-11T14:00:39.406Z,54.55
2022-09-11T14:03:07.808Z,54.18
2022-09-11T14:05:36.751Z,53.42
2022-09-11T14:08:07.573Z,52.46
2022-09-11T14:10:46.958Z,52.76
2022-09-11T14:13:18.583Z,53.02
2022-09-11T14:15:51.876Z,53.22
2022-09-11T14:18:29.574Z,53.34
2022-09-11T14:21:01.264Z,53.08
2022-09-11T14:23:31.238Z,52.93
2022-09-11T14:26:07.756Z,53.16
2022-09-11T14:28:43.028Z,52.72
2022-09-11T14:31:14.321Z,53.05
2022-09-11T14:33:42.333Z,52.88
2022-09-11T14:36:19.000Z,52.22
2022-09-11T14:38:48.121Z,51.96
2022-09-11T14:41:16.680Z,51.31
2022-09-11T14:43:47.753Z,51.11
2022-09-11T14:46:17.047Z,50.63
2022-09-11T14:48:44.805Z,50.55
2022-09-11T14:51:13.951Z,52.07
2022-09-11T14:53:43.917Z,53.54
2022-09-11T14:56:11.693Z,54.32
2022-09-11T14:58:39.295Z,55.34
2022-09-11T15:01:07.179Z,55.46
2022-09-11T15:03:35.026Z,56.07
2022-09-11T15:06:02.711Z,56.11
2022-09-11T15:08:31.628Z,56.67
2022-09-11T15:10:59.259Z,57.27
2022-09-11T15:13:27.219Z,57.08
2022-09-11T15:15:56.059Z,57.14
2022-09-11T15:18:25.545Z,57.42
2022-09-11T15:20:54.818Z,57.52
2022-09-11T15:23:22.381Z,57.27
2022-09-11T15:25:57.361Z,57.73
2022-09-11T15:28:24.913Z,57.90
2022-09-11T15:30:59.862Z,58.44
2022-09-11T15:33:27.918Z,58.61
2022-09-11T15:35:57.083Z,58.71
2022-09-11T15:38:25.035Z,58.59
2022-09-11T15:40:56.796Z,58.61
2022-09-11T15:43:24.663Z,58.48
2022-09-11T15:45:52.583Z,59.18
2022-09-11T15:48:21.295Z,58.41
2022-09-11T15:51:00.064Z,59.16
2022-09-11T15:53:27.986Z,59.17
2022-09-11T15:56:05.104Z,58.61
2022-09-11T15:58:34.109Z,59.16
2022-09-11T16:01:02.797Z,58.84
2022-09-11T16:03:31.209Z,58.74
2022-09-11T16:06:00.858Z,58.88
2022-09-11T16:08:28.880Z,58.63
2022-09-11T16:10:56.485Z,58.91
2022-09-11T16:13:25.460Z,58.74
2022-09-11T16:16:03.583Z,59.03
2022-09-11T16:18:31.612Z,58.43
2022-09-11T16:20:59.684Z,58.73
2022-09-11T16:23:28.065Z,57.94
2022-09-11T16:25:55.781Z,57.45
2022-09-11T16:28:25.182Z,57.51
2022-09-11T16:30:53.846Z,57.56
2022-09-11T16:33:22.897Z,57.75
2022-09-11T16:36:00.040Z,58.50
2022-09-11T16:38:29.018Z,58.30
2022-09-11T16:41:09.316Z,58.04
2022-09-11T16:43:38.555Z,57.26
2022-09-11T16:46:08.559Z,57.51
2022-09-11T16:48:36.980Z,57.15
2022-09-11T16:51:05.677Z,56.87
2022-09-11T16:53:35.218Z,57.13
2022-09-11T16:56:05.393Z,57.33
2022-09-11T16:58:34.114Z,57.35
2022-09-11T17:01:06.342Z,57.41
2022-09-11T17:03:36.216Z,57.88
2022-09-11T17:06:08.033Z,57.33
2022-09-11T17:08:39.148Z,58.30
2022-09-11T17:11:09.689Z,58.51
2022-09-11T17:13:37.629Z,59.01
2022-09-11T17:16:11.564Z,59.06
2022-09-11T17:18:47.259Z,58.94
2022-09-11T17:21:15.351Z,59.27
2022-09-11T17:23:43.107Z,59.53
2022-09-11T17:26:12.774Z,59.82
2022-09-11T17:28:41.791Z,60.34
2022-09-11T17:31:13.465Z,60.40
2022-09-11T17:33:41.575Z,60.22
2022-09-11T17:36:10.943Z,60.42
2022-09-11T17:38:40.207Z,60.69
2022-09-11T17:41:09.241Z,61.17
2022-09-11T17:43:37.666Z,61.14
2022-09-11T17:46:07.924Z,61.04
2022-09-11T17:48:37.541Z,61.38
2022-09-11T17:51:07.496Z,61.28
2022-09-11T17:53:38.524Z,60.82
2022-09-11T17:56:09.680Z,61.22
2022-09-11T17:58:37.468Z,61.30
2022-09-11T18:01:06.096Z,61.79
2022-09-11T18:03:35.223Z,62.32
2022-09-11T18:06:06.674Z,62.92
2022-09-11T18:08:34.402Z,63.07
2022-09-11T18:11:03.055Z,62.25
2022-09-11T18:13:32.330Z,62.27
2022-09-11T18:15:59.893Z,63.04
2022-09-11T18:18:27.882Z,63.55
2022-09-11T18:20:55.855Z,63.55
2022-09-11T18:23:25.275Z,63.81
2022-09-11T18:25:52.922Z,63.89
2022-09-11T18:28:20.750Z,64.18
2022-09-11T18:30:49.824Z,63.98
2022-09-11T18:33:17.584Z,64.20
2022-09-11T18:35:46.561Z,64.38
2022-09-11T18:38:14.134Z,64.67
2022-09-11T18:40:43.155Z,64.54
2022-09-11T18:43:10.749Z,64.59
2022-09-11T18:45:38.312Z,64.76
2022-09-11T18:48:06.202Z,65.73
2022-09-11T18:50:36.499Z,66.40
2022-09-11T18:53:04.131Z,66.67
2022-09-11T18:55:31.722Z,66.51
2022-09-11T18:58:00.640Z,66.67
2022-09-11T19:00:29.624Z,66.51
2022-09-11T19:02:57.319Z,66.40
2022-09-11T19:05:26.216Z,66.60
2022-09-11T19:07:55.121Z,66.64
2022-09-11T19:10:22.773Z,66.43
2022-09-11T19:12:50.342Z,66.50
2022-09-11T19:15:19.483Z,66.51
2022-09-11T19:17:47.987Z,66.56
2022-09-11T19:20:17.313Z,67.43
2022-09-11T19:22:44.891Z,67.31
2022-09-11T19:25:12.551Z,67.39
2022-09-11T19:27:40.155Z,67.17
2022-09-11T19:30:08.637Z,67.79
2022-09-11T19:32:37.615Z,68.11
2022-09-11T19:35:06.113Z,68.34
2022-09-11T19:37:33.962Z,68.74
2022-09-11T19:40:01.619Z,68.90
2022-09-11T19:42:29.229Z,68.96
2022-09-11T19:44:56.797Z,68.77
2022-09-11T19:47:25.016Z,68.98
2022-09-11T19:49:54.031Z,69.39
2022-09-11T19:52:21.613Z,69.46
2022-09-11T19:54:49.277Z,68.97
2022-09-11T19:57:19.598Z,69.99
2022-09-11T19:59:47.176Z,70.45
2022-09-11T20:02:14.926Z,70.78
2022-09-11T20:04:42.524Z,71.21
2022-09-11T20:07:11.666Z,71.91
2022-09-11T20:09:40.256Z,72.65
2022-09-11T20:12:08.081Z,73.06
2022-09-11T20:14:38.384Z,73.62
2022-09-11T20:17:10.169Z,72.97
2022-09-11T20:19:37.791Z,72.84
2022-09-11T20:22:05.474Z,72.51
2022-09-11T20:24:34.445Z,72.61
2022-09-11T20:27:02.010Z,72.51
2022-09-11T20:29:29.602Z,72.42
2022-09-11T20:31:57.209Z,72.35
2022-09-11T20:34:27.892Z,72.36
2022-09-11T20:36:56.580Z,73.10
2022-09-11T20:39:24.300Z,73.17
2022-09-11T20:41:53.263Z,73.13
2022-09-11T20:44:20.814Z,73.36
2022-09-11T20:46:48.443Z,73.00
2022-09-11T20:49:16.146Z,72.81
2022-09-11T20:51:44.369Z,72.51
2022-09-11T20:54:12.082Z,72.18
2022-09-11T20:56:39.729Z,72.84
2022-09-11T20:59:09.021Z,73.33
2022-09-11T21:01:36.801Z,72.93
2022-09-11T21:04:05.213Z,72.64
2022-09-11T21:06:35.032Z,73.13
2022-09-11T21:09:05.769Z,74.20
2022-09-11T21:11:34.158Z,74.73
2022-09-11T21:14:02.053Z,74.47
2022-09-11T21:16:31.272Z,74.78
2022-09-11T21:19:01.936Z,74.63
2022-09-11T21:21:30.576Z,75.38
2022-09-11T21:23:59.339Z,76.52
2022-09-11T21:26:28.866Z,76.95
2022-09-11T21:28:57.997Z,76.37
2022-09-11T21:31:26.802Z,76.52
2022-09-11T21:33:55.858Z,76.28
2022-09-11T21:36:23.842Z,76.06
2022-09-11T21:38:51.510Z,77.01
2022-09-11T21:41:19.424Z,76.39
2022-09-11T21:43:47.505Z,76.57
2022-09-11T21:46:15.564Z,77.12
2022-09-11T21:48:43.285Z,77.08
2022-09-11T21:51:14.571Z,77.04
2022-09-11T21:53:44.122Z,77.42
2022-09-11T21:56:18.192Z,77.13
2022-09-11T21:58:46.011Z,77.84
2022-09-11T22:01:14.298Z,77.73
2022-09-11T22:03:42.010Z,77.86
2022-09-11T22:06:12.608Z,77.43
2022-09-11T22:08:42.728Z,77.83
2022-09-11T22:11:11.278Z,78.00
2022-09-11T22:13:39.547Z,78.29
2022-09-11T22:16:09.383Z,78.78
2022-09-11T22:18:37.623Z,78.92
2022-09-11T22:21:05.840Z,78.78
2022-09-11T22:23:35.139Z,78.47
2022-09-11T22:26:04.987Z,78.60
2022-09-11T22:28:32.639Z,78.21
2022-09-11T22:31:00.547Z,77.75
2022-09-11T22:33:28.152Z,77.83
2022-09-11T22:35:55.773Z,78.33
2022-09-11T22:38:23.814Z,78.46
2022-09-11T22:40:55.558Z,79.07
2022-09-11T22:43:23.230Z,78.50
2022-09-11T22:45:52.091Z,79.21
2022-09-11T22:48:20.063Z,79.67
2022-09-11T22:50:47.713Z,79.48
2022-09-11T22:53:15.547Z,79.46
2022-09-11T22:55:45.101Z,79.57
2022-09-11T22:58:14.640Z,79.56
2022-09-11T23:00:43.229Z,79.81
2022-09-11T23:03:11.214Z,79.64
2022-09-11T23:05:56.583Z,79.69
2022-09-11T23:08:28.341Z,79.32
2022-09-11T23:11:00.016Z,78.92
2022-09-11T23:13:29.998Z,78.31
2022-09-11T23:15:57.899Z,78.58
2022-09-11T23:18:26.352Z,78.07
2022-09-11T23:20:54.739Z,78.22
2022-09-11T23:23:22.728Z,78.31
2022-09-11T23:25:50.613Z,78.69
2022-09-11T23:28:18.905Z,78.00
2022-09-11T23:30:47.872Z,78.31
2022-09-11T23:33:15.480Z,78.44
2022-09-11T23:35:43.064Z,78.07
2022-09-11T23:38:10.694Z,78.29
2022-09-11T23:40:38.310Z,78.30
2022-09-11T23:43:05.868Z,78.16
2022-09-11T23:45:33.811Z,78.38
2022-09-11T23:48:03.577Z,77.78
2022-09-11T23:50:31.152Z,77.61
2022-09-11T23:52:58.856Z,77.63
2022-09-11T23:55:26.510Z,77.41
2022-09-11T23:57:55.233Z,77.95
